New Ross, Canada
Current Conditions -  °F | °C
As of 9:00 PM on Friday 24 Oct 2014 (Local Time) from CYZX Reporting Station
Light Rain Light Rain  
Wind Chill: 54°   Ceiling: 1400
Heat Index: 54°   Visibility: 5mi
Dew Point: 52°   Wind: 6mph
Humidity: 94%   Direction: 350°N
Pressure: 29.49"   Gusts: NA
Location:  44.73°N, 64.45°W
Report Text: CYZX 250000Z 35005KT 5SM -RA BR SCT009 OVC014 12/11 A2949 RMK SF3SC5 WNDY HILL UNAVBL SLP988
Loading
Personal Weather Stations






























Interactive Weather Map
Tropical Storm Tracking
New forecast layout! Learn more

10-Day Weather Forecast

Advertisements
Track Severe Weather on mobile